Riverside, Alabama
Current Conditions -  °F | °C
As of 12:15 PM on Thursday 29 Jan 2015 (Local Time) from KASN Reporting Station
Scattered Clouds Scattered Clouds  
Wind Chill: 62°   Ceiling: Unl
Heat Index: 62°   Visibility: 10mi
Dew Point: 34°   Wind: 10mph
Humidity: 35%   Direction: 200°SSW
Pressure: 30.17"   Gusts: NA
Location:  33.61°N, 86.21°W
Report Text: KASN 291815Z AUTO 20009KT 10SM SCT075 SCT110 16/01 A3017 RMK AO2 T01640009
Loading
Personal Weather Stations






























Interactive Weather Map New forecast layout! Learn more

10-Day Weather Forecast

Advertisements
Track Severe Weather on mobile